sensor_id;sensor_type;location;lat;lon;timestamp;P1;durP1;ratioP1;P2;durP2;ratioP2
3817;SDS011;1924;48.078;11.516;2024-03-22T00:00:08;31.20;;;0.80;;
3817;SDS011;1924;48.078;11.516;2024-03-22T00:02:36;31.40;;;0.80;;
3817;SDS011;1924;48.078;11.516;2024-03-22T05:00:57;31.07;;;0.80;;
3817;SDS011;1924;48.078;11.516;2024-03-22T05:03:24;30.93;;;0.80;;
3817;SDS011;1924;48.078;11.516;2024-03-22T05:05:50;30.90;;;0.80;;
3817;SDS011;1924;48.078;11.516;2024-03-22T05:08:17;30.80;;;0.80;;
3817;SDS011;1924;48.078;11.516;2024-03-22T05:10:43;31.10;;;0.80;;
3817;SDS011;1924;48.078;11.516;2024-03-22T05:13:10;31.10;;;0.80;;
3817;SDS011;1924;48.078;11.516;2024-03-22T05:15:35;30.87;;;0.80;;
3817;SDS011;1924;48.078;11.516;2024-03-22T05:18:04;30.90;;;0.80;;
3817;SDS011;1924;48.078;11.516;2024-03-22T05:20:30;30.97;;;0.80;;
3817;SDS011;1924;48.078;11.516;2024-03-22T05:22:56;30.90;;;0.80;;
3817;SDS011;1924;48.078;11.516;2024-03-22T05:25:22;31.00;;;0.80;;
3817;SDS011;1924;48.078;11.516;2024-03-22T05:27:49;31.00;;;0.80;;
3817;SDS011;1924;48.078;11.516;2024-03-22T05:30:15;30.80;;;0.80;;
3817;SDS011;1924;48.078;11.516;2024-03-22T05:32:41;30.83;;;0.80;;
3817;SDS011;1924;48.078;11.516;2024-03-22T05:35:09;31.00;;;0.80;;
3817;SDS011;1924;48.078;11.516;2024-03-22T05:37:35;30.90;;;0.80;;
3817;SDS011;1924;48.078;11.516;2024-03-22T05:40:01;30.73;;;0.80;;
3817;SDS011;1924;48.078;11.516;2024-03-22T05:42:30;31.07;;;0.80;;
3817;SDS011;1924;48.078;11.516;2024-03-22T05:44:55;30.77;;;0.80;;
3817;SDS011;1924;48.078;11.516;2024-03-22T05:47:22;30.90;;;0.80;;
3817;SDS011;1924;48.078;11.516;2024-03-22T05:49:48;30.90;;;0.80;;
3817;SDS011;1924;48.078;11.516;2024-03-22T05:52:16;30.90;;;0.80;;
3817;SDS011;1924;48.078;11.516;2024-03-22T05:54:42;30.80;;;0.80;;
3817;SDS011;1924;48.078;11.516;2024-03-22T05:57:09;30.90;;;0.80;;
3817;SDS011;1924;48.078;11.516;2024-03-22T05:59:35;30.90;;;0.80;;
3817;SDS011;1924;48.078;11.516;2024-03-22T06:02:02;30.67;;;0.80;;
3817;SDS011;1924;48.078;11.516;2024-03-22T06:04:28;30.70;;;0.80;;
3817;SDS011;1924;48.078;11.516;2024-03-22T06:06:55;31.10;;;0.80;;
3817;SDS011;1924;48.078;11.516;2024-03-22T06:09:22;30.93;;;0.80;;
3817;SDS011;1924;48.078;11.516;2024-03-22T06:11:59;31.00;;;0.80;;
3817;SDS011;1924;48.078;11.516;2024-03-22T06:14:25;30.73;;;0.80;;
3817;SDS011;1924;48.078;11.516;2024-03-22T06:16:52;31.00;;;0.80;;
3817;SDS011;1924;48.078;11.516;2024-03-22T06:19:18;30.93;;;0.80;;
3817;SDS011;1924;48.078;11.516;2024-03-22T06:21:44;30.90;;;0.80;;
3817;SDS011;1924;48.078;11.516;2024-03-22T06:24:10;31.00;;;0.80;;
3817;SDS011;1924;48.078;11.516;2024-03-22T06:26:38;30.87;;;0.80;;
3817;SDS011;1924;48.078;11.516;2024-03-22T06:29:04;30.90;;;0.80;;
3817;SDS011;1924;48.078;11.516;2024-03-22T06:31:31;30.77;;;0.80;;
3817;SDS011;1924;48.078;11.516;2024-03-22T06:33:56;30.90;;;0.80;;
3817;SDS011;1924;48.078;11.516;2024-03-22T06:36:27;30.97;;;0.80;;
3817;SDS011;1924;48.078;11.516;2024-03-22T06:38:53;30.60;;;0.80;;
3817;SDS011;1924;48.078;11.516;2024-03-22T06:41:20;31.10;;;0.80;;
3817;SDS011;1924;48.078;11.516;2024-03-22T06:43:52;30.90;;;0.80;;
3817;SDS011;1924;48.078;11.516;2024-03-22T06:46:19;30.77;;;0.80;;
3817;SDS011;1924;48.078;11.516;2024-03-22T06:48:45;30.90;;;0.80;;
3817;SDS011;1924;48.078;11.516;2024-03-22T06:51:12;31.07;;;0.80;;
3817;SDS011;1924;48.078;11.516;2024-03-22T06:53:38;31.10;;;0.80;;
3817;SDS011;1924;48.078;11.516;2024-03-22T06:56:05;31.10;;;0.80;;
3817;SDS011;1924;48.078;11.516;2024-03-22T06:58:33;31.10;;;0.80;;
3817;SDS011;1924;48.078;11.516;2024-03-22T07:01:02;31.10;;;0.80;;
3817;SDS011;1924;48.078;11.516;2024-03-22T07:03:29;31.00;;;0.80;;
3817;SDS011;1924;48.078;11.516;2024-03-22T07:05:56;31.27;;;0.80;;
3817;SDS011;1924;48.078;11.516;2024-03-22T07:08:22;31.20;;;0.80;;
3817;SDS011;1924;48.078;11.516;2024-03-22T07:10:50;31.60;;;0.80;;
3817;SDS011;1924;48.078;11.516;2024-03-22T07:13:16;31.77;;;0.80;;
3817;SDS011;1924;48.078;11.516;2024-03-22T07:15:43;32.57;;;0.90;;
3817;SDS011;1924;48.078;11.516;2024-03-22T07:18:11;32.00;;;0.80;;
3817;SDS011;1924;48.078;11.516;2024-03-22T07:20:38;32.20;;;0.80;;
3817;SDS011;1924;48.078;11.516;2024-03-22T07:23:04;32.17;;;0.80;;
3817;SDS011;1924;48.078;11.516;2024-03-22T07:25:30;32.20;;;0.80;;
3817;SDS011;1924;48.078;11.516;2024-03-22T07:27:56;32.20;;;0.80;;
3817;SDS011;1924;48.078;11.516;2024-03-22T07:30:24;32.00;;;0.80;;
3817;SDS011;1924;48.078;11.516;2024-03-22T07:32:50;32.07;;;0.80;;
3817;SDS011;1924;48.078;11.516;2024-03-22T07:35:18;32.00;;;0.80;;
3817;SDS011;1924;48.078;11.516;2024-03-22T07:37:44;32.10;;;0.80;;
3817;SDS011;1924;48.078;11.516;2024-03-22T07:40:11;32.00;;;0.80;;
3817;SDS011;1924;48.078;11.516;2024-03-22T07:42:36;31.93;;;0.80;;
3817;SDS011;1924;48.078;11.516;2024-03-22T07:45:03;32.10;;;0.80;;
3817;SDS011;1924;48.078;11.516;2024-03-22T07:47:30;31.80;;;0.80;;
3817;SDS011;1924;48.078;11.516;2024-03-22T07:49:57;31.90;;;0.80;;
3817;SDS011;1924;48.078;11.516;2024-03-22T07:52:24;31.97;;;0.80;;
3817;SDS011;1924;48.078;11.516;2024-03-22T07:54:50;31.97;;;0.80;;
3817;SDS011;1924;48.078;11.516;2024-03-22T07:57:16;32.00;;;0.80;;
3817;SDS011;1924;48.078;11.516;2024-03-22T07:59:43;32.10;;;0.80;;
3817;SDS011;1924;48.078;11.516;2024-03-22T08:02:09;31.97;;;0.80;;
3817;SDS011;1924;48.078;11.516;2024-03-22T08:04:36;32.00;;;0.80;;
3817;SDS011;1924;48.078;11.516;2024-03-22T08:07:01;31.97;;;0.80;;
3817;SDS011;1924;48.078;11.516;2024-03-22T08:09:29;32.20;;;0.80;;
3817;SDS011;1924;48.078;11.516;2024-03-22T08:11:55;31.97;;;0.80;;
3817;SDS011;1924;48.078;11.516;2024-03-22T08:14:22;32.20;;;0.80;;
3817;SDS011;1924;48.078;11.516;2024-03-22T08:16:48;32.17;;;0.80;;
3817;SDS011;1924;48.078;11.516;2024-03-22T08:19:15;32.27;;;0.80;;
3817;SDS011;1924;48.078;11.516;2024-03-22T08:21:41;32.27;;;0.90;;
3817;SDS011;1924;48.078;11.516;2024-03-22T08:24:07;32.30;;;0.80;;
3817;SDS011;1924;48.078;11.516;2024-03-22T08:26:34;32.13;;;0.80;;
3817;SDS011;1924;48.078;11.516;2024-03-22T08:29:01;32.23;;;0.80;;
3817;SDS011;1924;48.078;11.516;2024-03-22T08:31:27;32.27;;;0.80;;
3817;SDS011;1924;48.078;11.516;2024-03-22T08:33:53;32.17;;;0.80;;
3817;SDS011;1924;48.078;11.516;2024-03-22T08:36:20;32.57;;;0.80;;
3817;SDS011;1924;48.078;11.516;2024-03-22T08:38:48;32.60;;;0.80;;
3817;SDS011;1924;48.078;11.516;2024-03-22T08:41:14;32.70;;;0.80;;
3817;SDS011;1924;48.078;11.516;2024-03-22T08:43:42;32.60;;;0.80;;
3817;SDS011;1924;48.078;11.516;2024-03-22T08:46:07;32.47;;;0.80;;
3817;SDS011;1924;48.078;11.516;2024-03-22T08:48:34;32.47;;;0.80;;
3817;SDS011;1924;48.078;11.516;2024-03-22T08:51:00;32.60;;;0.80;;
3817;SDS011;1924;48.078;11.516;2024-03-22T08:53:27;32.57;;;0.80;;
3817;SDS011;1924;48.078;11.516;2024-03-22T08:55:53;32.67;;;0.80;;
3817;SDS011;1924;48.078;11.516;2024-03-22T08:58:19;32.57;;;0.80;;
3817;SDS011;1924;48.078;11.516;2024-03-22T09:00:47;32.63;;;0.80;;
3817;SDS011;1924;48.078;11.516;2024-03-22T09:03:13;32.60;;;0.80;;
3817;SDS011;1924;48.078;11.516;2024-03-22T09:05:40;32.53;;;0.80;;
3817;SDS011;1924;48.078;11.516;2024-03-22T09:08:07;32.50;;;0.80;;
3817;SDS011;1924;48.078;11.516;2024-03-22T09:10:33;32.50;;;0.80;;
3817;SDS011;1924;48.078;11.516;2024-03-22T09:13:00;32.47;;;0.80;;
3817;SDS011;1924;48.078;11.516;2024-03-22T09:15:26;32.57;;;0.80;;
3817;SDS011;1924;48.078;11.516;2024-03-22T09:17:54;32.70;;;0.80;;
3817;SDS011;1924;48.078;11.516;2024-03-22T09:20:20;32.60;;;0.80;;
3817;SDS011;1924;48.078;11.516;2024-03-22T09:22:46;32.47;;;0.80;;
3817;SDS011;1924;48.078;11.516;2024-03-22T09:25:12;32.53;;;0.80;;
3817;SDS011;1924;48.078;11.516;2024-03-22T09:27:39;32.57;;;0.80;;
3817;SDS011;1924;48.078;11.516;2024-03-22T09:30:05;32.70;;;0.80;;
3817;SDS011;1924;48.078;11.516;2024-03-22T09:32:32;32.63;;;0.80;;
3817;SDS011;1924;48.078;11.516;2024-03-22T09:34:59;32.70;;;0.80;;
3817;SDS011;1924;48.078;11.516;2024-03-22T09:37:26;32.50;;;0.80;;
3817;SDS011;1924;48.078;11.516;2024-03-22T09:39:52;32.47;;;0.80;;
3817;SDS011;1924;48.078;11.516;2024-03-22T09:42:19;32.43;;;0.80;;
3817;SDS011;1924;48.078;11.516;2024-03-22T09:44:48;32.43;;;0.80;;
3817;SDS011;1924;48.078;11.516;2024-03-22T09:47:15;32.43;;;0.80;;
3817;SDS011;1924;48.078;11.516;2024-03-22T09:49:42;32.47;;;0.80;;
3817;SDS011;1924;48.078;11.516;2024-03-22T09:52:13;32.47;;;0.80;;
3817;SDS011;1924;48.078;11.516;2024-03-22T09:54:40;32.67;;;0.80;;
3817;SDS011;1924;48.078;11.516;2024-03-22T09:57:08;32.70;;;0.80;;
3817;SDS011;1924;48.078;11.516;2024-03-22T09:59:37;32.73;;;0.80;;
3817;SDS011;1924;48.078;11.516;2024-03-22T10:02:04;32.80;;;0.80;;
3817;SDS011;1924;48.078;11.516;2024-03-22T10:04:33;32.93;;;0.80;;
3817;SDS011;1924;48.078;11.516;2024-03-22T10:07:01;32.80;;;0.80;;
3817;SDS011;1924;48.078;11.516;2024-03-22T10:09:32;32.57;;;0.80;;
3817;SDS011;1924;48.078;11.516;2024-03-22T10:11:59;32.67;;;0.80;;
3817;SDS011;1924;48.078;11.516;2024-03-22T10:14:25;32.80;;;0.80;;
3817;SDS011;1924;48.078;11.516;2024-03-22T10:16:52;32.77;;;0.80;;
3817;SDS011;1924;48.078;11.516;2024-03-22T10:19:18;32.90;;;0.80;;
3817;SDS011;1924;48.078;11.516;2024-03-22T10:21:45;33.10;;;0.80;;
3817;SDS011;1924;48.078;11.516;2024-03-22T10:24:12;33.30;;;0.80;;
3817;SDS011;1924;48.078;11.516;2024-03-22T10:26:41;33.23;;;0.80;;
3817;SDS011;1924;48.078;11.516;2024-03-22T10:29:06;33.30;;;0.80;;
3817;SDS011;1924;48.078;11.516;2024-03-22T10:31:34;33.27;;;0.80;;
3817;SDS011;1924;48.078;11.516;2024-03-22T10:34:01;33.40;;;0.80;;
3817;SDS011;1924;48.078;11.516;2024-03-22T10:36:30;33.40;;;0.80;;
3817;SDS011;1924;48.078;11.516;2024-03-22T10:38:58;33.43;;;0.80;;
3817;SDS011;1924;48.078;11.516;2024-03-22T10:41:24;33.63;;;0.80;;
3817;SDS011;1924;48.078;11.516;2024-03-22T10:43:52;33.67;;;0.80;;
3817;SDS011;1924;48.078;11.516;2024-03-22T10:46:20;33.77;;;0.80;;
3817;SDS011;1924;48.078;11.516;2024-03-22T10:48:46;33.93;;;0.80;;
3817;SDS011;1924;48.078;11.516;2024-03-22T10:51:13;33.87;;;0.80;;
3817;SDS011;1924;48.078;11.516;2024-03-22T10:53:40;34.00;;;0.80;;
3817;SDS011;1924;48.078;11.516;2024-03-22T10:56:08;34.40;;;0.90;;
3817;SDS011;1924;48.078;11.516;2024-03-22T10:58:38;34.07;;;0.80;;
3817;SDS011;1924;48.078;11.516;2024-03-22T11:01:07;34.07;;;0.80;;
3817;SDS011;1924;48.078;11.516;2024-03-22T11:03:47;34.10;;;0.83;;
3817;SDS011;1924;48.078;11.516;2024-03-22T11:06:17;34.23;;;0.80;;
3817;SDS011;1924;48.078;11.516;2024-03-22T11:08:44;34.27;;;0.80;;
3817;SDS011;1924;48.078;11.516;2024-03-22T11:11:15;34.23;;;0.80;;
3817;SDS011;1924;48.078;11.516;2024-03-22T11:13:43;34.17;;;0.80;;
3817;SDS011;1924;48.078;11.516;2024-03-22T11:16:13;34.20;;;0.80;;
3817;SDS011;1924;48.078;11.516;2024-03-22T11:18:39;34.17;;;0.80;;
3817;SDS011;1924;48.078;11.516;2024-03-22T11:21:06;34.20;;;0.80;;
3817;SDS011;1924;48.078;11.516;2024-03-22T11:23:34;34.17;;;0.80;;
3817;SDS011;1924;48.078;11.516;2024-03-22T11:26:01;34.23;;;0.80;;
3817;SDS011;1924;48.078;11.516;2024-03-22T11:28:27;34.30;;;0.80;;
3817;SDS011;1924;48.078;11.516;2024-03-22T11:30:54;34.37;;;0.80;;
3817;SDS011;1924;48.078;11.516;2024-03-22T11:33:21;34.40;;;0.80;;
3817;SDS011;1924;48.078;11.516;2024-03-22T11:35:48;34.23;;;0.80;;
3817;SDS011;1924;48.078;11.516;2024-03-22T11:38:14;34.27;;;0.80;;
3817;SDS011;1924;48.078;11.516;2024-03-22T11:40:41;34.30;;;0.80;;
3817;SDS011;1924;48.078;11.516;2024-03-22T11:43:08;34.07;;;0.80;;
3817;SDS011;1924;48.078;11.516;2024-03-22T11:45:36;34.37;;;0.80;;
3817;SDS011;1924;48.078;11.516;2024-03-22T11:48:02;34.40;;;0.80;;
3817;SDS011;1924;48.078;11.516;2024-03-22T11:50:31;34.63;;;0.90;;
3817;SDS011;1924;48.078;11.516;2024-03-22T11:52:57;34.63;;;0.80;;
3817;SDS011;1924;48.078;11.516;2024-03-22T11:55:26;34.70;;;0.80;;
3817;SDS011;1924;48.078;11.516;2024-03-22T11:57:52;34.60;;;0.80;;
3817;SDS011;1924;48.078;11.516;2024-03-22T12:00:19;34.63;;;0.80;;
3817;SDS011;1924;48.078;11.516;2024-03-22T12:02:47;34.67;;;0.80;;
3817;SDS011;1924;48.078;11.516;2024-03-22T12:05:14;34.60;;;0.80;;
3817;SDS011;1924;48.078;11.516;2024-03-22T12:07:41;34.43;;;0.80;;
3817;SDS011;1924;48.078;11.516;2024-03-22T12:10:08;34.50;;;0.80;;
3817;SDS011;1924;48.078;11.516;2024-03-22T12:12:34;34.33;;;0.80;;
3817;SDS011;1924;48.078;11.516;2024-03-22T12:15:01;34.23;;;0.80;;
3817;SDS011;1924;48.078;11.516;2024-03-22T12:17:27;34.40;;;0.80;;
3817;SDS011;1924;48.078;11.516;2024-03-22T12:19:54;34.27;;;0.80;;
3817;SDS011;1924;48.078;11.516;2024-03-22T12:22:21;34.23;;;0.80;;
3817;SDS011;1924;48.078;11.516;2024-03-22T12:24:49;34.47;;;0.80;;
3817;SDS011;1924;48.078;11.516;2024-03-22T12:27:15;34.50;;;0.80;;
3817;SDS011;1924;48.078;11.516;2024-03-22T12:29:42;34.27;;;0.80;;
3817;SDS011;1924;48.078;11.516;2024-03-22T12:32:07;34.20;;;0.80;;
3817;SDS011;1924;48.078;11.516;2024-03-22T12:34:35;34.37;;;0.80;;
3817;SDS011;1924;48.078;11.516;2024-03-22T12:37:02;34.33;;;0.80;;
3817;SDS011;1924;48.078;11.516;2024-03-22T12:39:29;34.23;;;0.80;;
3817;SDS011;1924;48.078;11.516;2024-03-22T12:41:58;34.40;;;0.80;;
3817;SDS011;1924;48.078;11.516;2024-03-22T12:44:25;34.33;;;0.80;;
3817;SDS011;1924;48.078;11.516;2024-03-22T12:46:51;34.40;;;0.80;;
3817;SDS011;1924;48.078;11.516;2024-03-22T12:49:19;34.03;;;0.80;;
3817;SDS011;1924;48.078;11.516;2024-03-22T12:51:45;34.20;;;0.80;;
3817;SDS011;1924;48.078;11.516;2024-03-22T12:54:13;34.20;;;0.80;;
3817;SDS011;1924;48.078;11.516;2024-03-22T12:56:39;34.43;;;0.80;;
3817;SDS011;1924;48.078;11.516;2024-03-22T12:59:07;34.40;;;0.80;;
3817;SDS011;1924;48.078;11.516;2024-03-22T13:01:33;34.53;;;0.80;;
3817;SDS011;1924;48.078;11.516;2024-03-22T13:04:01;34.57;;;0.80;;
3817;SDS011;1924;48.078;11.516;2024-03-22T13:06:27;34.57;;;0.80;;
3817;SDS011;1924;48.078;11.516;2024-03-22T13:08:54;34.63;;;0.80;;
3817;SDS011;1924;48.078;11.516;2024-03-22T13:11:20;34.67;;;0.80;;
3817;SDS011;1924;48.078;11.516;2024-03-22T13:13:46;34.57;;;0.80;;
3817;SDS011;1924;48.078;11.516;2024-03-22T13:16:13;34.70;;;0.80;;
3817;SDS011;1924;48.078;11.516;2024-03-22T13:18:41;34.67;;;0.80;;
3817;SDS011;1924;48.078;11.516;2024-03-22T13:21:07;34.57;;;0.80;;
3817;SDS011;1924;48.078;11.516;2024-03-22T13:23:34;34.57;;;0.80;;
3817;SDS011;1924;48.078;11.516;2024-03-22T13:26:02;34.47;;;0.80;;
3817;SDS011;1924;48.078;11.516;2024-03-22T13:28:29;34.43;;;0.80;;
3817;SDS011;1924;48.078;11.516;2024-03-22T13:30:59;34.47;;;0.80;;
3817;SDS011;1924;48.078;11.516;2024-03-22T13:33:29;34.33;;;0.80;;
3817;SDS011;1924;48.078;11.516;2024-03-22T13:35:55;34.50;;;0.80;;
3817;SDS011;1924;48.078;11.516;2024-03-22T13:38:22;34.53;;;0.80;;
3817;SDS011;1924;48.078;11.516;2024-03-22T13:40:54;34.50;;;0.80;;
3817;SDS011;1924;48.078;11.516;2024-03-22T13:43:21;34.37;;;0.80;;
3817;SDS011;1924;48.078;11.516;2024-03-22T13:45:48;34.37;;;0.90;;
3817;SDS011;1924;48.078;11.516;2024-03-22T13:48:19;34.43;;;0.80;;
3817;SDS011;1924;48.078;11.516;2024-03-22T13:50:50;34.40;;;0.80;;
3817;SDS011;1924;48.078;11.516;2024-03-22T13:53:17;34.30;;;0.80;;
3817;SDS011;1924;48.078;11.516;2024-03-22T13:55:43;34.27;;;0.80;;
3817;SDS011;1924;48.078;11.516;2024-03-22T13:58:11;34.27;;;0.80;;
3817;SDS011;1924;48.078;11.516;2024-03-22T14:00:37;34.30;;;0.80;;
3817;SDS011;1924;48.078;11.516;2024-03-22T14:03:04;34.27;;;0.80;;
3817;SDS011;1924;48.078;11.516;2024-03-22T14:05:30;34.37;;;0.80;;
3817;SDS011;1924;48.078;11.516;2024-03-22T14:07:59;34.30;;;0.80;;
3817;SDS011;1924;48.078;11.516;2024-03-22T14:10:25;34.17;;;0.80;;
3817;SDS011;1924;48.078;11.516;2024-03-22T14:12:52;34.40;;;0.80;;
3817;SDS011;1924;48.078;11.516;2024-03-22T14:15:18;34.27;;;0.80;;
3817;SDS011;1924;48.078;11.516;2024-03-22T14:17:45;34.27;;;0.80;;
3817;SDS011;1924;48.078;11.516;2024-03-22T14:20:11;34.20;;;0.80;;
3817;SDS011;1924;48.078;11.516;2024-03-22T14:22:38;34.27;;;0.80;;
3817;SDS011;1924;48.078;11.516;2024-03-22T14:25:07;34.17;;;0.80;;
3817;SDS011;1924;48.078;11.516;2024-03-22T14:27:35;34.10;;;0.80;;
3817;SDS011;1924;48.078;11.516;2024-03-22T14:30:02;34.30;;;0.80;;
3817;SDS011;1924;48.078;11.516;2024-03-22T14:32:30;34.30;;;0.80;;
3817;SDS011;1924;48.078;11.516;2024-03-22T14:34:56;34.40;;;0.80;;
3817;SDS011;1924;48.078;11.516;2024-03-22T14:37:23;34.20;;;0.80;;
3817;SDS011;1924;48.078;11.516;2024-03-22T14:39:49;34.03;;;0.80;;
3817;SDS011;1924;48.078;11.516;2024-03-22T14:42:17;34.20;;;0.80;;
3817;SDS011;1924;48.078;11.516;2024-03-22T14:44:43;34.07;;;0.80;;
3817;SDS011;1924;48.078;11.516;2024-03-22T14:47:10;34.17;;;0.80;;
3817;SDS011;1924;48.078;11.516;2024-03-22T14:49:35;34.17;;;0.80;;
3817;SDS011;1924;48.078;11.516;2024-03-22T14:52:02;34.10;;;0.80;;
3817;SDS011;1924;48.078;11.516;2024-03-22T14:54:28;33.80;;;0.80;;
3817;SDS011;1924;48.078;11.516;2024-03-22T14:56:55;33.83;;;0.80;;
3817;SDS011;1924;48.078;11.516;2024-03-22T14:59:23;34.00;;;0.80;;
3817;SDS011;1924;48.078;11.516;2024-03-22T15:01:53;33.87;;;0.80;;
3817;SDS011;1924;48.078;11.516;2024-03-22T15:04:19;33.90;;;0.80;;
3817;SDS011;1924;48.078;11.516;2024-03-22T15:06:46;33.83;;;0.80;;
3817;SDS011;1924;48.078;11.516;2024-03-22T15:09:15;33.83;;;0.80;;
3817;SDS011;1924;48.078;11.516;2024-03-22T15:11:43;33.63;;;0.80;;
3817;SDS011;1924;48.078;11.516;2024-03-22T15:14:09;33.57;;;0.80;;
3817;SDS011;1924;48.078;11.516;2024-03-22T15:16:37;33.57;;;0.80;;
3817;SDS011;1924;48.078;11.516;2024-03-22T15:19:03;33.63;;;0.80;;
3817;SDS011;1924;48.078;11.516;2024-03-22T15:21:29;33.60;;;0.80;;
3817;SDS011;1924;48.078;11.516;2024-03-22T15:23:56;33.80;;;0.80;;
3817;SDS011;1924;48.078;11.516;2024-03-22T15:26:22;33.80;;;0.80;;
3817;SDS011;1924;48.078;11.516;2024-03-22T15:28:48;33.70;;;0.80;;
3817;SDS011;1924;48.078;11.516;2024-03-22T15:31:15;33.57;;;0.80;;
3817;SDS011;1924;48.078;11.516;2024-03-22T15:33:42;33.47;;;0.80;;
3817;SDS011;1924;48.078;11.516;2024-03-22T15:36:09;33.57;;;0.80;;
3817;SDS011;1924;48.078;11.516;2024-03-22T15:38:34;33.67;;;0.80;;
3817;SDS011;1924;48.078;11.516;2024-03-22T15:41:01;33.50;;;0.80;;
3817;SDS011;1924;48.078;11.516;2024-03-22T15:43:27;33.43;;;0.80;;
3817;SDS011;1924;48.078;11.516;2024-03-22T15:45:54;33.80;;;0.80;;
3817;SDS011;1924;48.078;11.516;2024-03-22T15:48:20;33.50;;;0.80;;
3817;SDS011;1924;48.078;11.516;2024-03-22T15:50:50;33.70;;;0.80;;
3817;SDS011;1924;48.078;11.516;2024-03-22T15:53:15;33.47;;;0.80;;
3817;SDS011;1924;48.078;11.516;2024-03-22T15:55:42;33.60;;;0.80;;
3817;SDS011;1924;48.078;11.516;2024-03-22T15:58:08;33.50;;;0.80;;
3817;SDS011;1924;48.078;11.516;2024-03-22T16:00:34;33.50;;;0.80;;
3817;SDS011;1924;48.078;11.516;2024-03-22T16:03:00;33.53;;;0.80;;
3817;SDS011;1924;48.078;11.516;2024-03-22T16:05:27;33.50;;;0.80;;
3817;SDS011;1924;48.078;11.516;2024-03-22T16:07:54;33.40;;;0.80;;
3817;SDS011;1924;48.078;11.516;2024-03-22T16:10:21;33.40;;;0.80;;
3817;SDS011;1924;48.078;11.516;2024-03-22T16:12:46;33.43;;;0.80;;
3817;SDS011;1924;48.078;11.516;2024-03-22T16:15:13;33.37;;;0.80;;
3817;SDS011;1924;48.078;11.516;2024-03-22T16:17:39;33.23;;;0.80;;
3817;SDS011;1924;48.078;11.516;2024-03-22T16:20:07;33.33;;;0.80;;
3817;SDS011;1924;48.078;11.516;2024-03-22T16:22:34;33.20;;;0.80;;
3817;SDS011;1924;48.078;11.516;2024-03-22T16:25:05;33.37;;;0.80;;
3817;SDS011;1924;48.078;11.516;2024-03-22T16:27:31;33.17;;;0.80;;
3817;SDS011;1924;48.078;11.516;2024-03-22T16:29:59;33.07;;;0.80;;
3817;SDS011;1924;48.078;11.516;2024-03-22T16:32:25;33.37;;;0.80;;
3817;SDS011;1924;48.078;11.516;2024-03-22T16:34:51;33.13;;;0.80;;
3817;SDS011;1924;48.078;11.516;2024-03-22T16:37:17;33.03;;;0.80;;
3817;SDS011;1924;48.078;11.516;2024-03-22T16:39:44;33.30;;;0.80;;
3817;SDS011;1924;48.078;11.516;2024-03-22T16:42:11;33.30;;;0.80;;
3817;SDS011;1924;48.078;11.516;2024-03-22T16:44:38;33.17;;;0.80;;
3817;SDS011;1924;48.078;11.516;2024-03-22T16:47:03;33.27;;;0.80;;
3817;SDS011;1924;48.078;11.516;2024-03-22T16:49:32;33.17;;;0.80;;
3817;SDS011;1924;48.078;11.516;2024-03-22T16:51:58;33.30;;;0.80;;
3817;SDS011;1924;48.078;11.516;2024-03-22T16:54:25;33.20;;;0.80;;
3817;SDS011;1924;48.078;11.516;2024-03-22T16:56:51;33.17;;;0.80;;
3817;SDS011;1924;48.078;11.516;2024-03-22T16:59:19;33.30;;;0.80;;
3817;SDS011;1924;48.078;11.516;2024-03-22T17:01:45;33.07;;;0.80;;
3817;SDS011;1924;48.078;11.516;2024-03-22T17:04:12;33.07;;;0.80;;
3817;SDS011;1924;48.078;11.516;2024-03-22T17:06:40;33.17;;;0.80;;
3817;SDS011;1924;48.078;11.516;2024-03-22T17:09:07;33.20;;;0.80;;
3817;SDS011;1924;48.078;11.516;2024-03-22T17:11:34;33.10;;;0.80;;
3817;SDS011;1924;48.078;11.516;2024-03-22T17:14:01;33.17;;;0.80;;
3817;SDS011;1924;48.078;11.516;2024-03-22T17:16:29;33.17;;;0.80;;
3817;SDS011;1924;48.078;11.516;2024-03-22T17:18:55;33.30;;;0.80;;
3817;SDS011;1924;48.078;11.516;2024-03-22T17:21:21;33.40;;;0.80;;
3817;SDS011;1924;48.078;11.516;2024-03-22T17:23:49;33.20;;;0.80;;
3817;SDS011;1924;48.078;11.516;2024-03-22T17:26:15;33.23;;;0.80;;
3817;SDS011;1924;48.078;11.516;2024-03-22T17:28:42;33.17;;;0.80;;
3817;SDS011;1924;48.078;11.516;2024-03-22T17:31:09;33.20;;;0.80;;
3817;SDS011;1924;48.078;11.516;2024-03-22T17:33:38;33.23;;;0.80;;
3817;SDS011;1924;48.078;11.516;2024-03-22T17:36:04;33.37;;;0.80;;
3817;SDS011;1924;48.078;11.516;2024-03-22T17:38:31;33.23;;;0.80;;
3817;SDS011;1924;48.078;11.516;2024-03-22T17:40:58;33.20;;;0.80;;
3817;SDS011;1924;48.078;11.516;2024-03-22T17:43:26;33.10;;;0.80;;
3817;SDS011;1924;48.078;11.516;2024-03-22T17:45:56;33.20;;;0.80;;
3817;SDS011;1924;48.078;11.516;2024-03-22T17:48:22;32.87;;;0.80;;
3817;SDS011;1924;48.078;11.516;2024-03-22T17:50:53;33.10;;;0.80;;
3817;SDS011;1924;48.078;11.516;2024-03-22T17:53:19;33.07;;;0.80;;
3817;SDS011;1924;48.078;11.516;2024-03-22T17:55:45;33.10;;;0.80;;
3817;SDS011;1924;48.078;11.516;2024-03-22T17:58:12;33.10;;;0.80;;
3817;SDS011;1924;48.078;11.516;2024-03-22T18:00:42;33.07;;;0.80;;
3817;SDS011;1924;48.078;11.516;2024-03-22T18:03:07;32.90;;;0.80;;
3817;SDS011;1924;48.078;11.516;2024-03-22T18:05:34;33.07;;;0.80;;
3817;SDS011;1924;48.078;11.516;2024-03-22T18:08:05;32.97;;;0.80;;
3817;SDS011;1924;48.078;11.516;2024-03-22T18:10:34;32.97;;;0.80;;
3817;SDS011;1924;48.078;11.516;2024-03-22T18:13:01;33.03;;;0.80;;
3817;SDS011;1924;48.078;11.516;2024-03-22T18:15:28;33.10;;;0.80;;
3817;SDS011;1924;48.078;11.516;2024-03-22T18:17:54;33.20;;;0.80;;
3817;SDS011;1924;48.078;11.516;2024-03-22T18:20:21;33.20;;;0.80;;
3817;SDS011;1924;48.078;11.516;2024-03-22T18:22:48;33.00;;;0.80;;
3817;SDS011;1924;48.078;11.516;2024-03-22T18:25:17;33.20;;;0.80;;
3817;SDS011;1924;48.078;11.516;2024-03-22T18:27:42;33.17;;;0.80;;
3817;SDS011;1924;48.078;11.516;2024-03-22T18:30:09;33.20;;;0.80;;
3817;SDS011;1924;48.078;11.516;2024-03-22T18:32:38;32.97;;;0.80;;
3817;SDS011;1924;48.078;11.516;2024-03-22T18:35:05;33.00;;;0.80;;
3817;SDS011;1924;48.078;11.516;2024-03-22T18:37:31;32.87;;;0.80;;
3817;SDS011;1924;48.078;11.516;2024-03-22T18:39:58;33.10;;;0.80;;
3817;SDS011;1924;48.078;11.516;2024-03-22T18:42:25;33.03;;;0.80;;
3817;SDS011;1924;48.078;11.516;2024-03-22T18:44:53;33.10;;;0.80;;
3817;SDS011;1924;48.078;11.516;2024-03-22T18:47:19;32.97;;;0.80;;
3817;SDS011;1924;48.078;11.516;2024-03-22T18:49:47;33.03;;;0.80;;
3817;SDS011;1924;48.078;11.516;2024-03-22T18:52:16;33.10;;;0.80;;
3817;SDS011;1924;48.078;11.516;2024-03-22T18:54:47;33.00;;;0.80;;
3817;SDS011;1924;48.078;11.516;2024-03-22T18:57:19;32.90;;;0.80;;
3817;SDS011;1924;48.078;11.516;2024-03-22T18:59:47;33.00;;;0.80;;
3817;SDS011;1924;48.078;11.516;2024-03-22T19:02:13;32.70;;;0.80;;
3817;SDS011;1924;48.078;11.516;2024-03-22T19:04:40;32.90;;;0.80;;
3817;SDS011;1924;48.078;11.516;2024-03-22T19:07:06;33.07;;;0.80;;
3817;SDS011;1924;48.078;11.516;2024-03-22T19:09:33;32.57;;;0.80;;
3817;SDS011;1924;48.078;11.516;2024-03-22T19:11:59;32.90;;;0.80;;
3817;SDS011;1924;48.078;11.516;2024-03-22T19:14:26;32.90;;;0.80;;
3817;SDS011;1924;48.078;11.516;2024-03-22T19:16:53;32.80;;;0.80;;
3817;SDS011;1924;48.078;11.516;2024-03-22T19:19:19;32.70;;;0.80;;
3817;SDS011;1924;48.078;11.516;2024-03-22T19:21:45;32.77;;;0.80;;
3817;SDS011;1924;48.078;11.516;2024-03-22T19:24:13;32.70;;;0.80;;
3817;SDS011;1924;48.078;11.516;2024-03-22T19:26:39;32.77;;;0.80;;
3817;SDS011;1924;48.078;11.516;2024-03-22T19:29:10;32.80;;;0.80;;
3817;SDS011;1924;48.078;11.516;2024-03-22T19:31:36;32.67;;;0.80;;
3817;SDS011;1924;48.078;11.516;2024-03-22T19:34:05;32.80;;;0.80;;
3817;SDS011;1924;48.078;11.516;2024-03-22T19:36:30;32.77;;;0.80;;
3817;SDS011;1924;48.078;11.516;2024-03-22T19:38:57;32.47;;;0.80;;
3817;SDS011;1924;48.078;11.516;2024-03-22T19:41:25;32.77;;;0.80;;